createdAt,value
2018-12-02T00:00:34.673Z,96.10
2018-12-02T00:03:03.822Z,96.10
2018-12-02T00:05:32.010Z,96.00
2018-12-02T00:08:00.217Z,96.10
2018-12-02T00:10:28.422Z,95.90
2018-12-02T00:12:56.607Z,95.90
2018-12-02T00:15:27.728Z,95.80
2018-12-02T00:17:57.984Z,95.70
2018-12-02T00:20:26.155Z,95.90
2018-12-02T00:22:54.320Z,96.20
2018-12-02T00:25:22.496Z,96.30
2018-12-02T00:27:54.844Z,95.90
2018-12-02T00:30:27.021Z,96.00
2018-12-02T00:32:55.181Z,95.90
2018-12-02T00:35:23.348Z,95.70
2018-12-02T00:37:52.810Z,95.50
2018-12-02T00:40:21.649Z,95.80
2018-12-02T00:42:53.921Z,96.00
2018-12-02T00:45:23.322Z,95.80
2018-12-02T00:47:51.517Z,95.70
2018-12-02T00:50:19.815Z,95.70
2018-12-02T00:52:52.123Z,95.60
2018-12-02T00:55:24.401Z,95.80
2018-12-02T00:57:52.688Z,95.80
2018-12-02T01:00:20.860Z,95.80
2018-12-02T01:02:49.765Z,95.80
2018-12-02T01:05:18.838Z,95.90
2018-12-02T01:07:47.036Z,95.80
2018-12-02T01:10:18.045Z,95.80
2018-12-02T01:12:46.837Z,96.10
2018-12-02T01:15:16.040Z,95.90
2018-12-02T01:17:44.221Z,95.60
2018-12-02T01:20:16.298Z,95.50
2018-12-02T01:22:44.500Z,95.60
2018-12-02T01:25:13.359Z,95.50
2018-12-02T01:27:41.939Z,95.60
2018-12-02T01:30:12.448Z,95.60
2018-12-02T01:32:40.810Z,95.60
2018-12-02T01:35:09.422Z,95.80
2018-12-02T01:37:37.577Z,95.70
2018-12-02T01:40:07.688Z,95.40
2018-12-02T01:42:35.849Z,95.40
2018-12-02T01:45:04.353Z,95.50
2018-12-02T01:47:32.525Z,95.50
2018-12-02T01:50:00.745Z,95.30
2018-12-02T01:52:28.960Z,95.40
2018-12-02T01:54:57.124Z,95.20
2018-12-02T01:57:25.288Z,95.40
2018-12-02T01:59:53.452Z,95.30
2018-12-02T02:02:21.601Z,95.20
2018-12-02T02:04:49.788Z,95.10
2018-12-02T02:07:17.955Z,95.30
2018-12-02T02:09:46.147Z,95.30
2018-12-02T02:12:14.350Z,95.40
2018-12-02T02:14:42.529Z,95.30
2018-12-02T02:17:10.707Z,95.40
2018-12-02T02:19:38.957Z,95.50
2018-12-02T02:22:07.168Z,95.70
2018-12-02T02:24:35.337Z,95.70
2018-12-02T02:27:03.497Z,95.60
2018-12-02T02:29:31.673Z,95.70
2018-12-02T02:31:59.830Z,95.90
2018-12-02T02:34:27.990Z,96.20
2018-12-02T02:36:56.165Z,96.20
2018-12-02T02:39:24.335Z,95.90
2018-12-02T02:41:52.582Z,95.80
2018-12-02T02:44:21.073Z,96.00
2018-12-02T02:46:49.301Z,95.90
2018-12-02T02:49:17.486Z,95.70
2018-12-02T02:51:45.652Z,96.10
2018-12-02T02:54:13.812Z,96.30
2018-12-02T02:56:41.992Z,96.40
2018-12-02T02:59:10.146Z,95.90
2018-12-02T03:01:38.352Z,96.40
2018-12-02T03:04:06.546Z,95.90
2018-12-02T03:06:34.735Z,96.10
2018-12-02T03:09:02.893Z,96.20
2018-12-02T03:11:31.063Z,96.10
2018-12-02T03:13:59.214Z,96.10
2018-12-02T03:16:27.377Z,96.40
2018-12-02T03:18:55.532Z,96.30
2018-12-02T03:21:23.701Z,96.70
2018-12-02T03:23:51.853Z,96.60
2018-12-02T03:26:20.017Z,96.50
2018-12-02T03:28:48.177Z,96.60
2018-12-02T03:31:16.350Z,96.60
2018-12-02T03:33:44.502Z,96.70
2018-12-02T03:36:12.666Z,96.60
2018-12-02T03:38:40.817Z,96.90
2018-12-02T03:41:08.976Z,96.90
2018-12-02T03:43:37.175Z,96.70
2018-12-02T03:46:05.645Z,96.80
2018-12-02T03:48:33.825Z,96.90
2018-12-02T03:51:02.001Z,96.90
2018-12-02T03:53:30.468Z,97.20
2018-12-02T03:55:58.629Z,97.10
2018-12-02T03:58:26.821Z,96.90
2018-12-02T04:00:54.988Z,97.00
2018-12-02T04:03:23.137Z,97.10
2018-12-02T04:05:51.297Z,96.90
2018-12-02T04:08:19.502Z,97.10
2018-12-02T04:10:47.685Z,97.00
2018-12-02T04:13:15.857Z,96.90
2018-12-02T04:15:44.040Z,97.00
2018-12-02T04:18:12.221Z,97.00
2018-12-02T04:20:40.709Z,97.10
2018-12-02T04:23:08.888Z,97.00
2018-12-02T04:25:37.071Z,96.80
2018-12-02T04:28:06.109Z,96.80
2018-12-02T04:30:34.315Z,96.80
2018-12-02T04:33:02.511Z,96.50
2018-12-02T04:35:30.710Z,96.20
2018-12-02T04:37:58.880Z,96.20
2018-12-02T04:40:27.052Z,96.20
2018-12-02T04:42:55.233Z,96.30
2018-12-02T04:45:23.404Z,96.30
2018-12-02T04:47:51.588Z,96.60
2018-12-02T04:50:20.782Z,96.40
2018-12-02T04:52:48.969Z,96.40
2018-12-02T04:55:17.137Z,96.70
2018-12-02T04:57:45.328Z,96.60
2018-12-02T05:00:15.357Z,96.60
2018-12-02T05:02:44.412Z,96.60
2018-12-02T05:05:14.630Z,96.80
2018-12-02T05:07:43.056Z,96.50
2018-12-02T05:10:13.246Z,96.50
2018-12-02T05:12:41.636Z,96.80
2018-12-02T05:15:10.793Z,96.70
2018-12-02T05:17:38.990Z,96.70
2018-12-02T05:20:11.332Z,96.70
2018-12-02T05:22:39.625Z,96.80
2018-12-02T05:25:09.221Z,96.70
2018-12-02T05:27:37.426Z,96.70
2018-12-02T05:30:14.887Z,96.60
2018-12-02T05:32:43.572Z,96.50
2018-12-02T05:35:12.571Z,96.80
2018-12-02T05:37:40.728Z,96.50
2018-12-02T05:40:11.068Z,96.70
2018-12-02T05:42:39.337Z,96.60
2018-12-02T05:45:13.196Z,96.80
2018-12-02T05:47:41.488Z,96.70
2018-12-02T05:50:12.769Z,96.40
2018-12-02T05:52:40.938Z,96.20
2018-12-02T05:55:10.753Z,96.10
2018-12-02T05:57:38.928Z,96.10
2018-12-02T06:00:11.912Z,96.30
2018-12-02T06:02:40.085Z,96.10
2018-12-02T06:05:09.386Z,96.20
2018-12-02T06:07:37.549Z,96.20
2018-12-02T06:10:10.637Z,96.00
2018-12-02T06:12:38.805Z,95.90
2018-12-02T06:15:11.910Z,95.70
2018-12-02T06:17:40.289Z,95.30
2018-12-02T06:20:24.763Z,95.20
2018-12-02T06:22:54.760Z,95.20
2018-12-02T06:25:22.919Z,95.30
2018-12-02T06:27:51.080Z,95.30
2018-12-02T06:30:21.109Z,95.40
2018-12-02T06:32:53.402Z,95.80
2018-12-02T06:35:21.553Z,95.70
2018-12-02T06:37:50.334Z,95.40
2018-12-02T06:40:21.577Z,95.50
2018-12-02T06:42:50.094Z,95.10
2018-12-02T06:45:18.266Z,94.90
2018-12-02T06:47:46.465Z,95.40
2018-12-02T06:50:15.722Z,95.40
2018-12-02T06:52:43.951Z,95.00
2018-12-02T06:55:15.321Z,94.90
2018-12-02T06:57:44.525Z,95.00
2018-12-02T07:00:22.216Z,96.00
2018-12-02T07:02:57.834Z,96.20
2018-12-02T07:05:28.492Z,96.30
2018-12-02T07:07:56.704Z,96.40
2018-12-02T07:10:24.856Z,96.40
2018-12-02T07:12:53.021Z,97.00
2018-12-02T07:15:21.184Z,96.90
2018-12-02T07:17:49.357Z,97.20
2018-12-02T07:20:17.512Z,96.70
2018-12-02T07:22:45.681Z,96.40
2018-12-02T07:25:13.836Z,96.70
2018-12-02T07:27:42.035Z,96.90
2018-12-02T07:30:11.068Z,96.40
2018-12-02T07:32:39.245Z,96.60
2018-12-02T07:35:10.644Z,96.50
2018-12-02T07:37:39.581Z,96.30
2018-12-02T07:40:13.266Z,96.10
2018-12-02T07:42:41.476Z,96.10
2018-12-02T07:45:09.633Z,96.20
2018-12-02T07:47:38.040Z,96.00
2018-12-02T07:50:08.016Z,95.50
2018-12-02T07:52:36.277Z,96.10
2018-12-02T07:55:04.712Z,96.20
2018-12-02T07:57:32.876Z,96.10
2018-12-02T08:00:01.033Z,96.00
2018-12-02T08:02:29.193Z,96.10
2018-12-02T08:04:57.356Z,96.10
2018-12-02T08:07:25.529Z,96.30
2018-12-02T08:09:53.721Z,96.30
2018-12-02T08:12:21.888Z,96.50
2018-12-02T08:14:50.106Z,97.20
2018-12-02T08:17:18.286Z,97.50
2018-12-02T08:19:46.473Z,96.80
2018-12-02T08:22:14.641Z,97.00
2018-12-02T08:24:42.808Z,97.10
2018-12-02T08:27:10.983Z,96.80
2018-12-02T08:29:39.165Z,96.90
2018-12-02T08:32:07.337Z,96.90
2018-12-02T08:34:35.517Z,97.20
2018-12-02T08:37:03.693Z,97.30
2018-12-02T08:39:31.881Z,96.60
2018-12-02T08:42:00.049Z,97.20
2018-12-02T08:44:28.229Z,97.70
2018-12-02T08:46:56.402Z,97.80
2018-12-02T08:49:24.584Z,97.90
2018-12-02T08:51:52.757Z,97.90
2018-12-02T08:54:20.936Z,97.50
2018-12-02T08:56:49.106Z,97.50
2018-12-02T08:59:17.311Z,97.80
2018-12-02T09:01:45.526Z,97.80
2018-12-02T09:04:13.725Z,97.30
2018-12-02T09:06:41.894Z,97.40
2018-12-02T09:09:10.573Z,97.50
2018-12-02T09:11:38.749Z,97.20
2018-12-02T09:14:06.987Z,96.90
2018-12-02T09:16:35.220Z,97.00
2018-12-02T09:19:04.478Z,97.30
2018-12-02T09:21:33.233Z,96.80
2018-12-02T09:24:01.417Z,97.50
2018-12-02T09:26:29.581Z,97.50
2018-12-02T09:28:57.772Z,97.10
2018-12-02T09:31:25.980Z,97.10
2018-12-02T09:33:54.629Z,97.00
2018-12-02T09:36:22.814Z,97.30
2018-12-02T09:38:51.993Z,97.20
2018-12-02T09:41:20.228Z,97.40
2018-12-02T09:43:48.479Z,97.20
2018-12-02T09:46:16.681Z,97.10
2018-12-02T09:48:44.966Z,97.40
2018-12-02T09:51:13.610Z,96.90
2018-12-02T09:53:41.788Z,96.80
2018-12-02T09:56:09.968Z,96.90
2018-12-02T09:58:38.185Z,97.30
2018-12-02T10:01:06.890Z,96.80
2018-12-02T10:03:35.101Z,97.00
2018-12-02T10:06:03.293Z,97.30
2018-12-02T10:08:31.457Z,97.40
2018-12-02T10:10:59.623Z,97.60
2018-12-02T10:13:27.776Z,97.80
2018-12-02T10:15:55.941Z,97.70
2018-12-02T10:18:24.200Z,98.10
2018-12-02T10:20:52.400Z,97.30
2018-12-02T10:23:20.588Z,97.40
2018-12-02T10:25:48.794Z,97.10
2018-12-02T10:28:16.953Z,96.80
2018-12-02T10:30:45.120Z,97.30
2018-12-02T10:33:13.289Z,97.10
2018-12-02T10:35:41.603Z,97.60
2018-12-02T10:38:09.864Z,97.40
2018-12-02T10:40:38.489Z,97.40
2018-12-02T10:43:06.903Z,97.10
2018-12-02T10:45:35.517Z,97.20
2018-12-02T10:48:05.040Z,97.30
2018-12-02T10:50:34.466Z,97.10
2018-12-02T10:53:06.709Z,96.90
2018-12-02T10:55:41.487Z,97.20
2018-12-02T10:58:12.164Z,97.50
2018-12-02T11:00:45.786Z,97.40
2018-12-02T11:03:14.171Z,97.10
2018-12-02T11:05:42.434Z,97.00
2018-12-02T11:08:10.598Z,97.10
2018-12-02T11:10:38.757Z,97.80
2018-12-02T11:13:06.917Z,97.60
2018-12-02T11:15:35.084Z,97.40
2018-12-02T11:18:03.463Z,97.90
2018-12-02T11:20:31.801Z,98.10
2018-12-02T11:23:00.060Z,97.70
2018-12-02T11:25:28.453Z,97.80
2018-12-02T11:27:56.609Z,97.80
2018-12-02T11:30:24.786Z,98.00
2018-12-02T11:32:52.990Z,97.90
2018-12-02T11:35:21.164Z,97.90
2018-12-02T11:37:49.326Z,97.90
2018-12-02T11:40:21.976Z,97.60
2018-12-02T11:42:51.406Z,97.90
2018-12-02T11:45:19.602Z,97.90
2018-12-02T11:47:49.037Z,98.00
2018-12-02T11:50:19.369Z,98.20
2018-12-02T11:52:47.798Z,97.80
2018-12-02T11:55:16.934Z,97.80
2018-12-02T11:57:45.186Z,97.80
2018-12-02T12:00:18.516Z,98.10
2018-12-02T12:02:46.742Z,98.10
2018-12-02T12:05:14.901Z,98.20
2018-12-02T12:07:43.741Z,97.90
2018-12-02T12:10:13.168Z,98.00
2018-12-02T12:12:41.373Z,97.80
2018-12-02T12:15:11.823Z,97.80
2018-12-02T12:17:40.073Z,97.90
2018-12-02T12:20:13.645Z,97.90
2018-12-02T12:22:41.892Z,98.00
2018-12-02T12:25:10.595Z,98.00
2018-12-02T12:27:39.361Z,98.10
2018-12-02T12:30:09.911Z,98.40
2018-12-02T12:32:38.235Z,98.60
2018-12-02T12:35:08.501Z,98.70
2018-12-02T12:37:36.681Z,98.80
2018-12-02T12:40:09.778Z,99.00
2018-12-02T12:42:37.994Z,99.00
2018-12-02T12:45:08.856Z,99.80
2018-12-02T12:47:37.753Z,99.60
2018-12-02T12:50:11.673Z,98.60
2018-12-02T12:52:40.053Z,98.80
2018-12-02T12:55:11.005Z,98.20
2018-12-02T12:57:39.220Z,98.30
2018-12-02T13:00:16.600Z,98.20
2018-12-02T13:02:44.850Z,98.40
2018-12-02T13:05:15.364Z,98.50
2018-12-02T13:07:43.669Z,98.20
2018-12-02T13:10:13.017Z,98.50
2018-12-02T13:12:41.268Z,98.80
2018-12-02T13:15:14.797Z,98.60
2018-12-02T13:17:51.424Z,98.70
2018-12-02T13:20:19.609Z,98.70
2018-12-02T13:22:47.784Z,99.00
2018-12-02T13:25:16.320Z,99.20
2018-12-02T13:27:45.397Z,99.20
2018-12-02T13:30:18.520Z,99.30
2018-12-02T13:32:47.878Z,99.30
2018-12-02T13:35:16.104Z,99.50
2018-12-02T13:37:44.351Z,99.40
2018-12-02T13:40:18.332Z,99.50
2018-12-02T13:43:04.129Z,99.60
2018-12-02T13:45:32.469Z,99.60
2018-12-02T13:48:00.773Z,99.60
2018-12-02T13:50:28.973Z,99.50
2018-12-02T13:52:57.564Z,99.20
2018-12-02T13:55:29.080Z,98.90
2018-12-02T13:57:57.768Z,99.00
2018-12-02T14:00:27.297Z,98.90
2018-12-02T14:03:03.810Z,98.80
2018-12-02T14:05:32.018Z,98.80
2018-12-02T14:08:00.234Z,98.40
2018-12-02T14:10:28.408Z,98.50
2018-12-02T14:12:58.777Z,98.20
2018-12-02T14:15:50.705Z,98.00
2018-12-02T14:18:23.302Z,98.00
2018-12-02T14:20:51.465Z,98.20
2018-12-02T14:23:19.978Z,98.10
2018-12-02T14:25:48.490Z,97.90
2018-12-02T14:28:19.834Z,98.30
2018-12-02T14:30:47.964Z,97.90
2018-12-02T14:33:16.169Z,98.10
2018-12-02T14:35:44.331Z,98.20
2018-12-02T14:38:12.575Z,98.10
2018-12-02T14:40:40.809Z,97.90
2018-12-02T14:43:09.006Z,97.70
2018-12-02T14:45:37.177Z,97.30
2018-12-02T14:48:05.864Z,97.60
2018-12-02T14:50:34.043Z,97.60
2018-12-02T14:53:02.225Z,97.60
2018-12-02T14:55:30.384Z,97.50
2018-12-02T14:57:58.564Z,97.50
2018-12-02T15:00:26.747Z,97.20
2018-12-02T15:02:54.930Z,97.10
2018-12-02T15:05:23.102Z,97.30
2018-12-02T15:07:51.616Z,97.10
2018-12-02T15:10:19.807Z,97.00
2018-12-02T15:12:48.841Z,96.90
2018-12-02T15:15:17.937Z,96.80
2018-12-02T15:17:47.342Z,96.70
2018-12-02T15:20:18.262Z,96.70
2018-12-02T15:22:47.118Z,96.70
2018-12-02T15:25:15.398Z,96.50
2018-12-02T15:27:44.329Z,96.80
2018-12-02T15:30:13.484Z,96.60
2018-12-02T15:32:42.613Z,96.50
2018-12-02T15:35:11.294Z,96.30
2018-12-02T15:37:39.488Z,96.60
2018-12-02T15:40:10.217Z,96.30
2018-12-02T15:42:39.505Z,96.30
2018-12-02T15:45:10.769Z,96.40
2018-12-02T15:47:38.977Z,96.30
2018-12-02T15:50:12.474Z,96.20
2018-12-02T15:52:40.702Z,96.30
2018-12-02T15:55:12.332Z,96.30
2018-12-02T15:57:40.522Z,96.10
2018-12-02T16:00:19.907Z,96.30
2018-12-02T16:02:48.265Z,96.50
2018-12-02T16:05:16.457Z,96.60
2018-12-02T16:07:44.787Z,96.60
2018-12-02T16:10:14.189Z,96.90
2018-12-02T16:12:46.013Z,97.00
2018-12-02T16:15:23.634Z,97.00
2018-12-02T16:17:52.150Z,97.10
2018-12-02T16:20:30.857Z,97.00
2018-12-02T16:22:59.074Z,96.80
2018-12-02T16:25:27.252Z,96.90
2018-12-02T16:27:55.448Z,96.50
2018-12-02T16:30:23.771Z,96.60
2018-12-02T16:32:53.749Z,96.60
2018-12-02T16:35:23.040Z,96.70
2018-12-02T16:37:52.436Z,96.50
2018-12-02T16:40:23.081Z,96.50
2018-12-02T16:42:54.459Z,96.50
2018-12-02T16:45:22.701Z,96.20
2018-12-02T16:47:55.057Z,96.20
2018-12-02T16:50:32.352Z,96.10
2018-12-02T16:53:06.378Z,96.30
2018-12-02T16:55:36.897Z,96.30
2018-12-02T16:59:15.293Z,96.20
2018-12-02T17:01:45.525Z,96.10
2018-12-02T17:04:13.913Z,96.20
2018-12-02T17:06:42.127Z,96.20
2018-12-02T17:09:12.316Z,96.00
2018-12-02T17:11:41.306Z,96.30
2018-12-02T17:14:09.497Z,96.10
2018-12-02T17:16:37.674Z,96.20
2018-12-02T17:19:07.049Z,96.10
2018-12-02T17:21:35.240Z,96.10
2018-12-02T17:24:03.602Z,96.20
2018-12-02T17:26:31.794Z,95.70
2018-12-02T17:29:00.391Z,95.70
2018-12-02T17:31:34.985Z,95.70
2018-12-02T17:34:03.184Z,95.70
2018-12-02T17:36:31.919Z,95.30
2018-12-02T17:39:03.089Z,95.50
2018-12-02T17:41:31.287Z,95.60
2018-12-02T17:43:59.467Z,95.70
2018-12-02T17:46:27.636Z,96.10
2018-12-02T17:48:55.821Z,96.20
2018-12-02T17:51:24.008Z,96.10
2018-12-02T17:53:52.177Z,96.30
2018-12-02T17:56:20.362Z,96.20
2018-12-02T17:58:48.536Z,96.20
2018-12-02T18:01:16.859Z,96.50
2018-12-02T18:03:45.087Z,96.60
2018-12-02T18:06:13.312Z,96.60
2018-12-02T18:08:41.526Z,96.60
2018-12-02T18:11:09.743Z,96.70
2018-12-02T18:13:37.955Z,96.60
2018-12-02T18:16:06.188Z,96.80
2018-12-02T18:18:34.450Z,96.70
2018-12-02T18:21:02.681Z,96.80
2018-12-02T18:23:30.860Z,96.70
2018-12-02T18:25:59.061Z,96.70
2018-12-02T18:28:27.249Z,96.60
2018-12-02T18:30:55.441Z,96.50
2018-12-02T18:33:23.697Z,96.40
2018-12-02T18:36:08.979Z,96.50
2018-12-02T18:38:38.973Z,96.50
2018-12-02T18:41:11.605Z,96.60
2018-12-02T18:43:39.781Z,96.70
2018-12-02T18:46:08.205Z,96.50
2018-12-02T18:48:36.386Z,96.50
2018-12-02T18:51:04.754Z,96.40
2018-12-02T18:53:32.954Z,96.50
2018-12-02T18:56:01.162Z,96.60
2018-12-02T18:58:29.341Z,96.60
2018-12-02T19:00:57.519Z,96.60
2018-12-02T19:03:25.884Z,96.50
2018-12-02T19:05:54.097Z,96.60
2018-12-02T19:08:22.268Z,96.60
2018-12-02T19:10:55.089Z,96.60
2018-12-02T19:13:23.233Z,96.60
2018-12-02T19:15:51.401Z,96.60
2018-12-02T19:18:19.667Z,96.50
2018-12-02T19:20:48.669Z,96.50
2018-12-02T19:23:18.973Z,96.50
2018-12-02T19:25:47.375Z,96.40
2018-12-02T19:28:15.535Z,96.30
2018-12-02T19:30:43.715Z,96.20
2018-12-02T19:33:14.125Z,96.30
2018-12-02T19:35:42.297Z,96.30
2018-12-02T19:38:16.345Z,96.10
2018-12-02T19:40:44.578Z,96.10
2018-12-02T19:43:12.808Z,96.10
2018-12-02T19:45:40.989Z,96.10
2018-12-02T19:48:09.163Z,96.10
2018-12-02T19:50:37.330Z,96.10
2018-12-02T19:53:05.644Z,96.10
2018-12-02T19:55:33.892Z,96.00
2018-12-02T19:58:01.985Z,96.00
2018-12-02T20:00:45.789Z,96.00
2018-12-02T20:03:15.449Z,95.80
2018-12-02T20:05:44.441Z,96.00
2018-12-02T20:08:13.543Z,96.40
2018-12-02T20:10:44.166Z,96.50
2018-12-02T20:13:13.672Z,96.40
2018-12-02T20:15:47.400Z,95.70
2018-12-02T20:18:15.622Z,95.90
2018-12-02T20:20:47.574Z,95.90
2018-12-02T20:23:16.754Z,95.80
2018-12-02T20:25:44.950Z,95.80
2018-12-02T20:28:13.955Z,95.80
2018-12-02T20:30:42.104Z,95.80
2018-12-02T20:33:10.288Z,95.90
2018-12-02T20:35:38.440Z,96.00
2018-12-02T20:38:06.602Z,95.80
2018-12-02T20:40:34.752Z,95.90
2018-12-02T20:43:02.921Z,95.90
2018-12-02T20:45:31.093Z,95.80
2018-12-02T20:47:59.253Z,95.90
2018-12-02T20:50:27.417Z,95.70
2018-12-02T20:52:55.578Z,95.80
2018-12-02T20:55:25.853Z,95.70
2018-12-02T20:57:58.440Z,95.80
2018-12-02T21:00:26.616Z,95.70
2018-12-02T21:03:06.727Z,95.80
2018-12-02T21:05:37.536Z,96.10
2018-12-02T21:08:06.333Z,96.40
2018-12-02T21:10:34.701Z,96.30
2018-12-02T21:13:02.929Z,96.40
2018-12-02T21:15:31.076Z,96.50
2018-12-02T21:17:59.238Z,96.50
2018-12-02T21:20:27.405Z,96.50
2018-12-02T21:22:55.571Z,96.60
2018-12-02T21:25:25.317Z,96.90
2018-12-02T21:27:53.457Z,96.80
2018-12-02T21:30:22.949Z,96.70
2018-12-02T21:32:51.116Z,96.70
2018-12-02T21:35:19.322Z,96.70
2018-12-02T21:37:47.915Z,96.60
2018-12-02T21:40:16.779Z,96.60
2018-12-02T21:42:45.694Z,96.90
2018-12-02T21:45:15.256Z,96.70
2018-12-02T21:47:44.980Z,96.60
2018-12-02T21:50:17.556Z,97.20
2018-12-02T21:52:45.744Z,97.00
2018-12-02T21:55:13.905Z,97.30
2018-12-02T21:57:42.067Z,97.50
2018-12-02T22:00:18.062Z,97.40
2018-12-02T22:02:46.260Z,97.60
2018-12-02T22:05:14.589Z,97.80
2018-12-02T22:07:42.929Z,97.70
2018-12-02T22:10:15.453Z,97.60
2018-12-02T22:12:43.773Z,97.70
2018-12-02T22:15:11.936Z,97.70
2018-12-02T22:17:40.104Z,97.90
2018-12-02T22:20:10.752Z,98.10
2018-12-02T22:22:39.352Z,98.10
2018-12-02T22:25:11.861Z,98.40
2018-12-02T22:28:19.088Z,98.30
2018-12-02T22:31:00.117Z,98.30
2018-12-02T22:33:41.002Z,98.40
2018-12-02T22:36:22.035Z,98.60
2018-12-02T22:39:02.796Z,98.50
2018-12-02T22:41:42.219Z,98.40
2018-12-02T22:44:49.782Z,98.80
2018-12-02T22:47:57.118Z,98.60
2018-12-02T22:51:04.411Z,98.80
2018-12-02T22:53:52.845Z,99.00
2018-12-02T22:56:41.282Z,99.00
2018-12-02T22:59:29.717Z,99.20
2018-12-02T23:02:37.027Z,99.10
2018-12-02T23:05:44.353Z,99.10
2018-12-02T23:08:32.794Z,99.30
2018-12-02T23:11:21.294Z,99.20
2018-12-02T23:14:09.730Z,99.20
2018-12-02T23:17:17.192Z,99.30
2018-12-02T23:20:07.446Z,99.40
2018-12-02T23:23:14.754Z,99.50
2018-12-02T23:26:03.266Z,99.50
2018-12-02T23:28:51.732Z,99.40
2018-12-02T23:31:59.034Z,99.30
2018-12-02T23:34:47.461Z,99.30
2018-12-02T23:37:35.978Z,99.20
2018-12-02T23:40:43.545Z,99.40
2018-12-02T23:46:31.342Z,99.50
2018-12-02T23:49:19.795Z,99.40
2018-12-02T23:52:08.253Z,99.40
2018-12-02T23:54:56.798Z,99.20
2018-12-02T23:58:04.117Z,99.30
